createdAt,value
2023-03-27T00:01:13.375Z,99.90
2023-03-27T00:03:45.017Z,99.90
2023-03-27T00:06:17.486Z,99.90
2023-03-27T00:08:47.062Z,99.90
2023-03-27T00:11:15.602Z,99.90
2023-03-27T00:13:50.606Z,99.90
2023-03-27T00:16:21.519Z,99.90
2023-03-27T00:18:49.393Z,99.90
2023-03-27T00:21:17.260Z,99.90
2023-03-27T00:23:44.963Z,99.90
2023-03-27T00:26:13.387Z,99.90
2023-03-27T00:28:42.069Z,99.90
2023-03-27T00:31:14.291Z,99.90
2023-03-27T00:33:42.605Z,99.90
2023-03-27T00:36:15.454Z,99.90
2023-03-27T00:38:43.843Z,99.90
2023-03-27T00:41:15.418Z,99.90
2023-03-27T00:43:44.072Z,99.90
2023-03-27T00:46:24.165Z,99.90
2023-03-27T00:48:52.762Z,99.90
2023-03-27T00:51:23.684Z,99.90
2023-03-27T00:53:52.798Z,99.90
2023-03-27T00:56:21.781Z,99.90
2023-03-27T00:58:56.948Z,99.90
2023-03-27T01:01:27.712Z,99.90
2023-03-27T01:03:58.412Z,99.90
2023-03-27T01:06:26.473Z,99.90
2023-03-27T01:08:54.159Z,99.90
2023-03-27T01:11:35.982Z,99.90
2023-03-27T01:14:29.728Z,99.90
2023-03-27T01:17:24.750Z,99.90
2023-03-27T01:19:58.303Z,99.90
2023-03-27T01:22:53.701Z,99.90
2023-03-27T01:25:37.102Z,99.90
2023-03-27T01:28:42.476Z,99.90
2023-03-27T01:31:27.923Z,99.90
2023-03-27T01:34:35.178Z,99.90
2023-03-27T01:37:28.615Z,99.90
2023-03-27T01:40:01.520Z,99.90
2023-03-27T01:42:41.365Z,99.90
2023-03-27T01:45:21.057Z,99.90
2023-03-27T01:48:06.833Z,99.90
2023-03-27T01:50:53.008Z,99.90
2023-03-27T01:53:29.807Z,99.90
2023-03-27T01:56:04.469Z,99.90
2023-03-27T01:58:38.000Z,99.90
2023-03-27T02:01:08.808Z,99.90
2023-03-27T02:03:45.230Z,99.90
2023-03-27T02:06:28.326Z,99.90
2023-03-27T02:09:11.854Z,99.90
2023-03-27T02:11:52.860Z,99.90
2023-03-27T02:14:24.940Z,99.90
2023-03-27T02:16:57.809Z,99.90
2023-03-27T02:19:41.793Z,99.90
2023-03-27T02:22:09.681Z,99.90
2023-03-27T02:24:41.226Z,99.90
2023-03-27T02:27:24.022Z,99.90
2023-03-27T02:30:07.043Z,99.90
2023-03-27T02:32:40.037Z,99.90
2023-03-27T02:35:19.039Z,99.90
2023-03-27T02:37:51.415Z,99.90
2023-03-27T02:40:46.666Z,99.90
2023-03-27T02:43:41.263Z,99.90
2023-03-27T02:46:20.533Z,99.90
2023-03-27T02:49:01.715Z,99.90
2023-03-27T02:51:57.749Z,99.90
2023-03-27T02:54:33.235Z,99.90
2023-03-27T02:57:05.749Z,99.90
2023-03-27T02:59:50.769Z,99.90
2023-03-27T03:02:27.184Z,99.90
2023-03-27T03:05:10.446Z,99.90
2023-03-27T03:07:41.605Z,99.90
2023-03-27T03:10:11.645Z,99.90
2023-03-27T03:12:40.006Z,99.90
2023-03-27T03:15:08.389Z,99.90
2023-03-27T03:17:36.026Z,99.90
2023-03-27T03:20:05.575Z,99.90
2023-03-27T03:22:33.173Z,99.90
2023-03-27T03:25:00.774Z,99.90
2023-03-27T03:27:29.116Z,99.90
2023-03-27T03:30:00.372Z,99.90
2023-03-27T03:32:28.287Z,99.90
2023-03-27T03:34:57.068Z,99.90
2023-03-27T03:37:28.966Z,99.90
2023-03-27T03:39:57.011Z,99.90
2023-03-27T03:42:24.597Z,99.90
2023-03-27T03:44:52.259Z,99.90
2023-03-27T03:47:19.926Z,99.90
2023-03-27T03:49:47.649Z,99.90
2023-03-27T03:52:15.794Z,99.90
2023-03-27T03:54:44.975Z,99.90
2023-03-27T03:57:14.290Z,99.90
2023-03-27T03:59:42.567Z,99.90
2023-03-27T04:02:12.381Z,99.90
2023-03-27T04:04:44.288Z,99.90
2023-03-27T04:07:13.712Z,99.90
2023-03-27T04:09:41.349Z,99.90
2023-03-27T04:12:14.288Z,99.90
2023-03-27T04:14:42.178Z,99.90
2023-03-27T04:17:12.706Z,99.90
2023-03-27T04:19:41.753Z,99.90
2023-03-27T04:22:09.368Z,99.90
2023-03-27T04:24:37.261Z,99.90
2023-03-27T04:27:05.607Z,99.90
2023-03-27T04:29:34.065Z,99.90
2023-03-27T04:32:02.147Z,99.90
2023-03-27T04:34:30.129Z,99.90
2023-03-27T04:36:57.706Z,99.90
2023-03-27T04:39:26.416Z,99.90
2023-03-27T04:41:54.375Z,99.90
2023-03-27T04:44:22.030Z,99.90
2023-03-27T04:46:49.849Z,99.90
2023-03-27T04:49:19.168Z,99.90
2023-03-27T04:51:47.072Z,99.90
2023-03-27T04:54:14.881Z,99.90
2023-03-27T04:56:46.495Z,99.90
2023-03-27T04:59:15.522Z,99.90
2023-03-27T05:01:43.182Z,99.90
2023-03-27T05:04:10.861Z,99.90
2023-03-27T05:06:40.394Z,99.90
2023-03-27T05:09:09.000Z,99.90
2023-03-27T05:11:36.596Z,99.90
2023-03-27T05:14:04.204Z,99.90
2023-03-27T05:16:35.898Z,99.90
2023-03-27T05:19:03.712Z,99.90
2023-03-27T05:21:32.493Z,99.90
2023-03-27T05:24:00.054Z,99.90
2023-03-27T05:26:30.444Z,99.90
2023-03-27T05:28:59.315Z,99.90
2023-03-27T05:31:28.362Z,99.90
2023-03-27T05:33:59.169Z,99.90
2023-03-27T05:36:28.415Z,99.90
2023-03-27T05:38:57.799Z,99.90
2023-03-27T05:41:25.362Z,99.90
2023-03-27T05:43:53.466Z,99.90
2023-03-27T05:46:21.749Z,99.90
2023-03-27T05:48:49.504Z,99.90
2023-03-27T05:51:23.855Z,99.90
2023-03-27T05:53:51.622Z,99.90
2023-03-27T05:56:24.456Z,99.90
2023-03-27T05:58:52.220Z,99.90
2023-03-27T06:01:20.826Z,99.90
2023-03-27T06:03:50.136Z,99.90
2023-03-27T06:06:18.014Z,99.90
2023-03-27T06:08:46.155Z,99.90
2023-03-27T06:11:17.238Z,99.90
2023-03-27T06:13:45.481Z,99.90
2023-03-27T06:16:13.130Z,99.90
2023-03-27T06:18:40.763Z,99.90
2023-03-27T06:21:08.433Z,99.90
2023-03-27T06:23:36.103Z,99.90
2023-03-27T06:26:06.823Z,99.90
2023-03-27T06:28:39.205Z,99.90
2023-03-27T06:31:08.510Z,99.90
2023-03-27T06:33:36.283Z,99.90
2023-03-27T06:36:05.401Z,99.90
2023-03-27T06:38:33.087Z,99.90
2023-03-27T06:41:04.629Z,99.90
2023-03-27T06:43:32.350Z,99.90
2023-03-27T06:46:00.275Z,99.90
2023-03-27T06:48:28.718Z,99.90
2023-03-27T06:50:59.488Z,99.90
2023-03-27T06:53:28.615Z,99.90
2023-03-27T06:55:57.957Z,99.90
2023-03-27T06:58:25.870Z,99.90
2023-03-27T07:00:53.613Z,99.90
2023-03-27T07:03:22.656Z,99.90
2023-03-27T07:05:50.386Z,99.90
2023-03-27T07:08:23.343Z,99.90
2023-03-27T07:11:07.455Z,99.90
2023-03-27T07:13:38.731Z,99.90
2023-03-27T07:16:07.447Z,99.90
2023-03-27T07:18:36.194Z,99.90
2023-03-27T07:21:04.215Z,99.90
2023-03-27T07:23:31.987Z,99.90
2023-03-27T07:26:01.315Z,99.90
2023-03-27T07:28:32.782Z,99.90
2023-03-27T07:31:00.964Z,99.90
2023-03-27T07:33:28.726Z,99.90
2023-03-27T07:35:56.813Z,99.90
2023-03-27T07:38:28.092Z,99.90
2023-03-27T07:40:57.621Z,99.90
2023-03-27T07:43:26.202Z,99.90
2023-03-27T07:45:53.917Z,99.90
2023-03-27T07:48:22.270Z,99.90
2023-03-27T07:50:56.043Z,99.90
2023-03-27T07:53:32.675Z,99.90
2023-03-27T07:56:05.019Z,99.90
2023-03-27T07:58:32.673Z,99.90
2023-03-27T08:01:02.500Z,99.90
2023-03-27T08:03:31.822Z,99.90
2023-03-27T08:06:01.136Z,99.90
2023-03-27T08:08:29.361Z,99.90
2023-03-27T08:11:02.395Z,99.90
2023-03-27T08:13:30.270Z,99.90
2023-03-27T08:16:10.629Z,99.90
2023-03-27T08:18:38.924Z,99.90
2023-03-27T08:21:08.722Z,99.90
2023-03-27T08:23:41.246Z,99.90
2023-03-27T08:26:13.947Z,99.90
2023-03-27T08:28:45.731Z,99.90
2023-03-27T08:31:15.301Z,99.90
2023-03-27T08:33:43.233Z,99.90
2023-03-27T08:36:11.679Z,99.90
2023-03-27T08:38:39.666Z,99.90
2023-03-27T08:41:18.299Z,99.90
2023-03-27T08:43:46.296Z,99.90
2023-03-27T08:46:27.114Z,99.90
2023-03-27T08:49:19.699Z,99.90
2023-03-27T08:51:49.104Z,99.90
2023-03-27T08:54:26.004Z,99.90
2023-03-27T08:56:56.062Z,99.90
2023-03-27T08:59:27.906Z,99.90
2023-03-27T09:02:16.335Z,99.90
2023-03-27T09:04:51.778Z,99.90
2023-03-27T09:07:51.426Z,99.90
2023-03-27T09:10:19.172Z,99.90
2023-03-27T09:13:07.597Z,99.90
2023-03-27T09:15:41.671Z,99.90
2023-03-27T09:18:15.474Z,99.90
2023-03-27T09:20:46.221Z,99.90
2023-03-27T09:23:21.018Z,99.90
2023-03-27T09:25:55.806Z,99.90
2023-03-27T09:28:35.788Z,99.90
2023-03-27T09:31:35.260Z,99.90
2023-03-27T09:34:11.407Z,99.90
2023-03-27T09:36:39.553Z,99.90
2023-03-27T09:39:12.549Z,99.90
2023-03-27T09:41:46.789Z,99.90
2023-03-27T09:44:25.453Z,99.90
2023-03-27T09:47:02.402Z,99.90
2023-03-27T09:49:30.288Z,99.90
2023-03-27T09:52:00.068Z,99.90
2023-03-27T09:54:32.524Z,99.90
2023-03-27T09:57:06.093Z,99.90
2023-03-27T09:59:37.940Z,99.90
2023-03-27T10:02:15.994Z,99.90
2023-03-27T10:05:01.811Z,99.90
2023-03-27T10:07:29.960Z,99.90
2023-03-27T10:10:17.687Z,99.90
2023-03-27T10:12:57.223Z,99.90
2023-03-27T10:15:36.944Z,99.90
2023-03-27T10:18:19.506Z,99.90
2023-03-27T10:20:52.491Z,99.90
2023-03-27T10:23:42.949Z,99.90
2023-03-27T10:26:13.921Z,99.90
2023-03-27T10:28:49.025Z,99.90
2023-03-27T10:31:32.058Z,99.90
2023-03-27T10:34:11.342Z,99.90
2023-03-27T10:36:39.479Z,99.90
2023-03-27T10:39:11.737Z,99.90
2023-03-27T10:41:39.836Z,99.90
2023-03-27T10:44:20.117Z,99.90
2023-03-27T10:46:48.024Z,99.90
2023-03-27T10:49:17.421Z,99.90
2023-03-27T10:51:52.351Z,99.90
2023-03-27T10:54:38.007Z,99.90
2023-03-27T10:57:35.960Z,99.90
2023-03-27T11:00:19.707Z,99.90
2023-03-27T11:03:16.063Z,99.90
2023-03-27T11:05:47.214Z,99.90
2023-03-27T11:08:28.013Z,99.90
2023-03-27T11:11:01.111Z,99.90
2023-03-27T11:13:33.451Z,99.90
2023-03-27T11:16:14.570Z,99.90
2023-03-27T11:19:10.986Z,99.90
2023-03-27T11:22:06.746Z,99.90
2023-03-27T11:24:53.286Z,99.90
2023-03-27T11:27:38.293Z,96.50
2023-03-27T11:30:09.179Z,90.60
2023-03-27T11:33:01.759Z,90.00
2023-03-27T11:35:36.334Z,79.00
2023-03-27T11:38:12.574Z,75.60
2023-03-27T11:40:46.442Z,80.70
2023-03-27T11:43:16.672Z,79.90
2023-03-27T11:46:19.528Z,78.20
2023-03-27T11:49:16.663Z,79.20
2023-03-27T11:51:57.862Z,76.50
2023-03-27T11:54:53.008Z,80.50
2023-03-27T11:57:24.290Z,82.20
2023-03-27T12:00:16.186Z,78.90
2023-03-27T12:03:06.876Z,74.70
2023-03-27T12:05:56.472Z,80.10
2023-03-27T12:08:48.255Z,95.40
2023-03-27T12:11:17.454Z,99.90
2023-03-27T12:14:09.003Z,99.00
2023-03-27T12:16:58.926Z,94.30
2023-03-27T12:19:51.159Z,92.40
2023-03-27T12:22:35.710Z,94.20
2023-03-27T12:25:25.644Z,96.90
2023-03-27T12:28:22.659Z,95.90
2023-03-27T12:31:02.178Z,97.00
2023-03-27T12:33:39.238Z,99.20
2023-03-27T12:36:13.880Z,99.90
2023-03-27T12:38:43.664Z,98.70
2023-03-27T12:41:25.880Z,97.40
2023-03-27T12:44:01.971Z,97.80
2023-03-27T12:46:35.378Z,95.00
2023-03-27T12:49:23.849Z,91.50
2023-03-27T12:51:53.818Z,87.90
2023-03-27T12:54:29.347Z,88.40
2023-03-27T12:57:19.126Z,85.80
2023-03-27T12:59:46.874Z,77.10
2023-03-27T13:02:48.853Z,77.00
2023-03-27T13:05:43.500Z,77.90
2023-03-27T13:08:38.878Z,78.00
2023-03-27T13:11:11.963Z,83.60
2023-03-27T13:14:18.275Z,86.30
2023-03-27T13:17:09.373Z,85.60
2023-03-27T13:19:44.992Z,84.60
2023-03-27T13:22:31.983Z,81.80
2023-03-27T13:25:35.374Z,78.70
2023-03-27T13:28:29.316Z,77.10
2023-03-27T13:33:46.125Z,78.80
2023-03-27T13:36:20.620Z,80.60
2023-03-27T13:39:08.601Z,79.00
2023-03-27T13:41:46.138Z,72.90
2023-03-27T13:44:38.546Z,64.00
2023-03-27T13:47:38.386Z,64.90
2023-03-27T13:50:24.659Z,66.60
2023-03-27T13:53:22.434Z,65.60
2023-03-27T13:55:54.434Z,63.90
2023-03-27T13:58:46.803Z,60.10
2023-03-27T14:01:36.166Z,57.40
2023-03-27T14:04:13.688Z,53.10
2023-03-27T14:10:09.287Z,43.50
2023-03-27T14:12:38.187Z,45.40
2023-03-27T14:15:08.024Z,46.60
2023-03-27T14:18:15.364Z,48.30
2023-03-27T14:20:45.881Z,47.30
2023-03-27T14:23:26.376Z,51.10
2023-03-27T14:26:24.666Z,52.00
2023-03-27T14:28:58.965Z,54.10
2023-03-27T14:31:28.814Z,55.40
2023-03-27T14:34:13.326Z,50.70
2023-03-27T14:36:49.813Z,47.50
2023-03-27T14:39:23.413Z,44.10
2023-03-27T14:42:01.215Z,43.40
2023-03-27T14:44:33.312Z,41.50
2023-03-27T14:47:12.086Z,42.40
2023-03-27T14:49:49.970Z,45.00
2023-03-27T14:52:34.958Z,49.20
2023-03-27T14:55:04.615Z,53.00
2023-03-27T14:57:32.670Z,57.10
2023-03-27T15:00:00.682Z,59.60
2023-03-27T15:02:35.019Z,61.60
2023-03-27T15:05:09.719Z,66.00
2023-03-27T15:07:37.786Z,70.10
2023-03-27T15:10:21.463Z,74.80
2023-03-27T15:12:49.544Z,78.00
2023-03-27T15:15:40.349Z,81.40
2023-03-27T15:18:15.401Z,82.80
2023-03-27T15:20:45.596Z,85.30
2023-03-27T15:23:33.842Z,87.70
2023-03-27T15:26:24.505Z,90.40
2023-03-27T15:29:18.933Z,93.00
2023-03-27T15:31:49.143Z,95.00
2023-03-27T15:34:23.437Z,94.40
2023-03-27T15:36:58.491Z,90.00
2023-03-27T15:39:26.629Z,84.10
2023-03-27T15:42:03.143Z,79.90
2023-03-27T15:44:32.590Z,75.30
2023-03-27T15:47:01.861Z,74.20
2023-03-27T15:49:42.856Z,73.00
2023-03-27T15:52:31.716Z,71.30
2023-03-27T15:55:01.093Z,70.70
2023-03-27T15:57:32.000Z,71.30
2023-03-27T16:00:12.320Z,70.50
2023-03-27T16:02:40.942Z,65.60
2023-03-27T16:05:15.389Z,65.40
2023-03-27T16:07:47.250Z,65.80
2023-03-27T16:10:29.828Z,68.20
2023-03-27T16:13:02.421Z,69.50
2023-03-27T16:15:41.146Z,71.30
2023-03-27T16:18:31.882Z,84.60
2023-03-27T16:21:11.224Z,98.10
2023-03-27T16:23:39.786Z,99.90
2023-03-27T16:26:12.141Z,99.90
2023-03-27T16:28:40.994Z,99.90
2023-03-27T16:31:17.231Z,99.90
2023-03-27T16:33:45.881Z,99.90
2023-03-27T16:36:29.863Z,99.90
2023-03-27T16:38:57.609Z,99.90
2023-03-27T16:41:25.320Z,99.90
2023-03-27T16:43:55.685Z,99.90
2023-03-27T16:46:26.082Z,99.90
2023-03-27T16:48:54.821Z,99.90
2023-03-27T16:51:25.587Z,99.90
2023-03-27T16:53:53.572Z,99.90
2023-03-27T16:56:21.952Z,99.90
2023-03-27T16:58:49.634Z,99.90
2023-03-27T17:01:18.562Z,99.90
2023-03-27T17:03:49.361Z,99.90
2023-03-27T17:06:19.105Z,99.90
2023-03-27T17:08:49.106Z,99.90
2023-03-27T17:11:16.826Z,99.90
2023-03-27T17:13:44.732Z,99.90
2023-03-27T17:16:13.523Z,99.90
2023-03-27T17:18:41.405Z,99.90
2023-03-27T17:21:09.183Z,99.90
2023-03-27T17:26:34.554Z,99.90
2023-03-27T17:29:05.166Z,99.90
2023-03-27T17:31:34.194Z,99.90
2023-03-27T17:34:01.829Z,99.90
2023-03-27T17:36:40.228Z,99.90
2023-03-27T17:39:13.075Z,99.90
2023-03-27T17:41:40.796Z,99.90
2023-03-27T17:44:11.418Z,99.90
2023-03-27T17:46:39.242Z,99.90
2023-03-27T17:49:06.956Z,99.90
2023-03-27T17:51:35.415Z,99.90
2023-03-27T17:54:06.941Z,99.90
2023-03-27T17:56:37.379Z,99.90
2023-03-27T17:59:06.347Z,99.90
2023-03-27T18:01:34.332Z,99.90
2023-03-27T18:04:02.973Z,99.90
2023-03-27T18:06:30.753Z,99.90
2023-03-27T18:08:58.431Z,99.90
2023-03-27T18:11:26.643Z,99.90
2023-03-27T18:13:54.325Z,99.90
2023-03-27T18:16:22.940Z,99.90
2023-03-27T18:18:52.320Z,99.90
2023-03-27T18:21:20.537Z,99.90
2023-03-27T18:23:48.161Z,99.90
2023-03-27T18:26:16.790Z,99.90
2023-03-27T18:28:44.532Z,99.90
2023-03-27T18:31:12.894Z,99.90
2023-03-27T18:33:40.699Z,99.90
2023-03-27T18:36:15.557Z,99.90
2023-03-27T18:38:43.221Z,99.90
2023-03-27T18:41:11.066Z,99.90
2023-03-27T18:43:38.881Z,99.90
2023-03-27T18:46:07.654Z,99.90
2023-03-27T18:48:35.707Z,99.90
2023-03-27T18:51:05.258Z,99.90
2023-03-27T18:53:32.994Z,99.90
2023-03-27T18:56:01.347Z,99.90
2023-03-27T18:58:30.186Z,99.90
2023-03-27T19:00:58.236Z,99.90
2023-03-27T19:03:30.316Z,99.90
2023-03-27T19:06:01.532Z,99.90
2023-03-27T19:08:29.435Z,99.90
2023-03-27T19:10:57.557Z,99.90
2023-03-27T19:13:25.941Z,99.90
2023-03-27T19:15:53.562Z,99.90
2023-03-27T19:18:21.301Z,99.90
2023-03-27T19:20:48.962Z,99.90
2023-03-27T19:23:17.455Z,99.90
2023-03-27T19:25:50.198Z,99.90
2023-03-27T19:28:17.909Z,99.90
2023-03-27T19:30:45.987Z,99.90
2023-03-27T19:33:13.758Z,99.90
2023-03-27T19:35:41.834Z,99.90
2023-03-27T19:38:09.577Z,99.90
2023-03-27T19:40:37.144Z,99.90
2023-03-27T19:43:07.281Z,99.90
2023-03-27T19:45:37.280Z,99.90
2023-03-27T19:48:05.125Z,99.90
2023-03-27T19:50:33.358Z,99.90
2023-03-27T19:53:08.109Z,99.90
2023-03-27T19:55:37.385Z,99.90
2023-03-27T19:58:05.093Z,99.90
2023-03-27T20:00:32.695Z,99.90
2023-03-27T20:03:00.498Z,99.90
2023-03-27T20:05:29.508Z,99.90
2023-03-27T20:07:57.232Z,99.90
2023-03-27T20:10:27.070Z,99.90
2023-03-27T20:12:54.836Z,99.90
2023-03-27T20:15:22.543Z,99.90
2023-03-27T20:17:50.221Z,99.90
2023-03-27T20:20:18.657Z,99.90
2023-03-27T20:22:57.210Z,99.90
2023-03-27T20:25:27.995Z,99.90
2023-03-27T20:27:56.384Z,99.90
2023-03-27T20:30:24.379Z,99.90
2023-03-27T20:32:52.511Z,99.90
2023-03-27T20:35:24.663Z,99.90
2023-03-27T20:37:57.413Z,99.90
2023-03-27T20:40:26.305Z,99.90
2023-03-27T20:43:02.932Z,99.90
2023-03-27T20:45:31.396Z,99.90
2023-03-27T20:48:05.380Z,99.90
2023-03-27T20:50:35.172Z,99.90
2023-03-27T20:53:04.970Z,99.90
2023-03-27T20:55:39.368Z,99.90
2023-03-27T20:58:14.591Z,99.90
2023-03-27T21:00:43.646Z,99.90
2023-03-27T21:03:12.034Z,99.90
2023-03-27T21:05:42.419Z,99.90
2023-03-27T21:08:10.159Z,99.90
2023-03-27T21:10:38.738Z,99.90
2023-03-27T21:13:07.330Z,99.90
2023-03-27T21:15:35.190Z,99.90
2023-03-27T21:18:02.868Z,99.90
2023-03-27T21:20:31.739Z,99.90
2023-03-27T21:23:00.239Z,99.90
2023-03-27T21:25:27.901Z,99.90
2023-03-27T21:27:55.459Z,99.90
2023-03-27T21:30:23.532Z,99.90
2023-03-27T21:33:11.481Z,99.90
2023-03-27T21:35:41.318Z,99.90
2023-03-27T21:38:09.355Z,99.90
2023-03-27T21:40:38.760Z,99.90
2023-03-27T21:43:08.291Z,99.90
2023-03-27T21:45:36.575Z,99.90
2023-03-27T21:48:04.443Z,99.90
2023-03-27T21:50:32.064Z,99.90
2023-03-27T21:53:03.170Z,99.90
2023-03-27T21:55:30.803Z,99.90
2023-03-27T21:57:58.394Z,99.90
2023-03-27T22:00:26.507Z,99.90
2023-03-27T22:02:54.219Z,99.90
2023-03-27T22:05:24.644Z,99.90
2023-03-27T22:07:52.466Z,99.90
2023-03-27T22:10:20.361Z,99.90
2023-03-27T22:12:47.916Z,99.90
2023-03-27T22:15:15.855Z,99.90
2023-03-27T22:17:43.975Z,99.90
2023-03-27T22:20:11.818Z,99.90
2023-03-27T22:22:39.434Z,99.90
2023-03-27T22:25:07.470Z,99.90
2023-03-27T22:27:35.048Z,99.90
2023-03-27T22:30:03.664Z,99.90
2023-03-27T22:32:31.443Z,99.90
2023-03-27T22:34:59.215Z,99.90
2023-03-27T22:37:26.842Z,99.90
2023-03-27T22:39:54.490Z,99.90
2023-03-27T22:42:22.162Z,99.90
2023-03-27T22:44:49.736Z,99.90
2023-03-27T22:47:22.477Z,99.90
2023-03-27T22:49:50.461Z,99.90
2023-03-27T22:52:18.024Z,99.90
2023-03-27T22:54:45.889Z,99.90
2023-03-27T22:57:16.249Z,99.90
2023-03-27T22:59:43.853Z,99.90
2023-03-27T23:02:14.123Z,99.90
2023-03-27T23:04:41.805Z,99.90
2023-03-27T23:07:11.694Z,99.90
2023-03-27T23:09:39.320Z,99.90
2023-03-27T23:12:07.027Z,99.90
2023-03-27T23:14:34.687Z,99.90
2023-03-27T23:17:03.166Z,99.90
2023-03-27T23:19:30.790Z,99.90
2023-03-27T23:21:58.611Z,99.90
2023-03-27T23:24:26.246Z,99.90
2023-03-27T23:26:55.263Z,99.90
2023-03-27T23:29:22.849Z,99.90
2023-03-27T23:31:50.658Z,99.90
2023-03-27T23:34:20.223Z,99.90
2023-03-27T23:36:47.791Z,99.90
2023-03-27T23:39:18.149Z,99.90
2023-03-27T23:41:45.943Z,99.90
2023-03-27T23:44:15.996Z,99.90
2023-03-27T23:46:44.585Z,99.90
2023-03-27T23:49:13.065Z,99.90
2023-03-27T23:51:40.752Z,99.90
2023-03-27T23:54:11.409Z,99.90
2023-03-27T23:56:39.062Z,99.90
2023-03-27T23:59:06.648Z,99.90
